Chamita, New Mexico
Current Conditions -  °F | °C
As of 5:55 AM on Thursday 27 Nov 2014 (Local Time) from KLAM Reporting Station
Clear Clear  
Wind Chill: 32°   Ceiling: Unl
Heat Index: 32°   Visibility: 10mi
Dew Point: 22°   Wind: 3mph
Humidity: 66%   Direction: 360°N
Pressure: 30.48"   Gusts: NA
Location:  36.054°N, 106.072°W
Report Text: KLAM 271255Z AUTO 36003KT 10SM CLR 00/M06 A3048 RMK AO2 T00011056
Loading
Personal Weather Stations






























Interactive Weather Map New forecast layout! Learn more

10-Day Weather Forecast

Advertisements
Track Severe Weather on mobile